createdAt,value
2023-02-25T00:00:42.095Z,13.87
2023-02-25T00:05:46.144Z,12.37
2023-02-25T00:10:58.057Z,13.03
2023-02-25T00:16:03.288Z,11.20
2023-02-25T00:21:09.443Z,12.07
2023-02-25T00:26:12.901Z,11.67
2023-02-25T00:31:18.850Z,11.10
2023-02-25T00:36:24.930Z,11.87
2023-02-25T00:41:30.760Z,10.17
2023-02-25T00:46:34.125Z,12.33
2023-02-25T00:51:39.899Z,10.87
2023-02-25T00:56:42.550Z,11.00
2023-02-25T01:01:45.573Z,11.40
2023-02-25T01:06:49.660Z,13.70
2023-02-25T01:11:53.108Z,12.93
2023-02-25T01:16:57.814Z,14.23
2023-02-25T01:22:01.922Z,16.43
2023-02-25T01:27:05.875Z,12.37
2023-02-25T01:32:11.823Z,12.73
2023-02-25T01:37:16.127Z,17.13
2023-02-25T01:42:19.191Z,11.47
2023-02-25T01:47:22.141Z,11.13
2023-02-25T01:52:26.666Z,11.13
2023-02-25T01:57:29.526Z,9.77
2023-02-25T02:02:34.043Z,13.07
2023-02-25T02:07:38.237Z,14.00
2023-02-25T02:12:44.353Z,11.07
2023-02-25T02:17:54.019Z,15.33
2023-02-25T02:23:15.840Z,10.70
2023-02-25T02:29:03.985Z,11.03
2023-02-25T02:34:18.924Z,11.37
2023-02-25T02:39:29.076Z,8.93
2023-02-25T02:44:38.922Z,8.60
2023-02-25T02:49:49.732Z,12.67
2023-02-25T02:54:56.762Z,15.33
2023-02-25T03:00:02.295Z,11.90
2023-02-25T03:05:10.333Z,9.43
2023-02-25T03:10:19.980Z,7.17
2023-02-25T03:15:23.717Z,13.10
2023-02-25T03:20:34.142Z,12.10
2023-02-25T03:25:47.339Z,8.47
2023-02-25T03:30:55.913Z,7.23
2023-02-25T03:36:03.669Z,9.17
2023-02-25T03:41:08.311Z,11.07
2023-02-25T03:46:11.856Z,7.40
2023-02-25T03:51:19.643Z,9.20
2023-02-25T03:56:22.983Z,10.80
2023-02-25T04:01:29.130Z,14.47
2023-02-25T04:06:33.410Z,8.90
2023-02-25T04:11:36.397Z,12.07
2023-02-25T04:16:39.336Z,11.53
2023-02-25T04:21:43.474Z,6.07
2023-02-25T04:26:46.143Z,8.27
2023-02-25T04:31:48.945Z,7.93
2023-02-25T04:36:55.976Z,5.40
2023-02-25T04:41:59.950Z,6.57
2023-02-25T04:47:03.498Z,4.10
2023-02-25T04:52:09.320Z,5.23
2023-02-25T04:57:13.931Z,3.57
2023-02-25T05:02:17.558Z,4.17
2023-02-25T05:07:22.113Z,4.27
2023-02-25T05:12:27.105Z,3.87
2023-02-25T05:17:31.238Z,3.43
2023-02-25T05:22:36.526Z,6.33
2023-02-25T05:27:55.873Z,4.13
2023-02-25T05:33:29.318Z,4.93
2023-02-25T05:38:37.036Z,4.33
2023-02-25T05:49:17.501Z,3.23
2023-02-25T05:54:29.405Z,3.67
2023-02-25T06:00:16.984Z,3.13
2023-02-25T06:11:52.018Z,3.27
2023-02-25T06:23:36.424Z,3.17
2023-02-25T06:58:53.891Z,9.83
2023-02-25T07:53:19.468Z,4.63
2023-02-25T08:04:37.123Z,3.73
2023-02-25T08:09:49.120Z,4.83
2023-02-25T08:20:50.273Z,4.63
2023-02-25T08:26:24.621Z,6.37
2023-02-25T08:32:17.365Z,6.30
2023-02-25T08:37:40.898Z,12.47
2023-02-25T08:43:33.376Z,5.90
2023-02-25T08:49:16.505Z,6.87
2023-02-25T09:07:04.309Z,6.03
2023-02-25T09:12:52.608Z,6.37
2023-02-25T09:25:19.826Z,2.47
2023-02-25T09:31:21.944Z,1.90
2023-02-25T09:36:51.768Z,9.63
2023-02-25T09:42:29.876Z,1.60
2023-02-25T10:00:45.671Z,1.87
2023-02-25T10:13:26.101Z,2.07
2023-02-25T10:18:49.018Z,2.70
2023-02-25T10:24:19.634Z,2.67
2023-02-25T10:29:40.833Z,7.03
2023-02-25T10:34:49.582Z,2.87
2023-02-25T10:40:07.039Z,2.90
2023-02-25T10:45:20.353Z,3.07
2023-02-25T10:50:45.315Z,2.30
2023-02-25T10:55:52.756Z,1.97
2023-02-25T11:01:00.726Z,1.77
2023-02-25T11:06:18.042Z,1.13
2023-02-25T11:11:24.262Z,2.77
2023-02-25T11:16:29.727Z,2.20
2023-02-25T11:21:36.589Z,3.20
2023-02-25T11:26:42.426Z,1.37
2023-02-25T11:31:50.923Z,4.00
2023-02-25T11:36:54.379Z,1.93
2023-02-25T11:42:00.283Z,3.57
2023-02-25T11:47:12.431Z,3.70
2023-02-25T11:52:21.828Z,3.17
2023-02-25T11:57:34.049Z,4.73
2023-02-25T12:02:48.825Z,2.63
2023-02-25T12:08:13.262Z,3.67
2023-02-25T12:13:54.103Z,3.10
2023-02-25T12:19:31.498Z,2.77
2023-02-25T12:24:53.272Z,4.00
2023-02-25T12:30:34.506Z,3.10
2023-02-25T12:36:03.937Z,3.13
2023-02-25T12:41:24.669Z,2.67
2023-02-25T12:47:01.876Z,3.67
2023-02-25T12:52:28.282Z,2.07
2023-02-25T12:57:50.051Z,2.53
2023-02-25T13:03:15.341Z,3.20
2023-02-25T13:08:32.440Z,2.40
2023-02-25T13:13:56.885Z,2.17
2023-02-25T13:19:14.985Z,1.70
2023-02-25T13:24:39.064Z,1.57
2023-02-25T13:30:06.901Z,2.03
2023-02-25T13:36:05.420Z,3.60
2023-02-25T13:41:37.474Z,3.90
2023-02-25T13:46:53.783Z,5.07
2023-02-25T13:52:29.472Z,6.53
2023-02-25T13:57:48.397Z,6.07
2023-02-25T14:03:04.512Z,1.97
2023-02-25T14:08:24.796Z,1.70
2023-02-25T14:13:55.967Z,3.17
2023-02-25T14:31:39.364Z,4.20
2023-02-25T14:37:41.417Z,4.77
2023-02-25T14:43:42.316Z,0.57
2023-02-25T14:56:08.069Z,5.33
2023-02-25T15:02:24.349Z,3.43
2023-02-25T15:08:50.012Z,2.60
2023-02-25T15:14:52.535Z,1.30
2023-02-25T15:21:01.377Z,1.87
2023-02-25T15:33:33.115Z,3.67
2023-02-25T15:46:06.482Z,3.90
2023-02-25T16:03:26.041Z,3.13
2023-02-25T16:09:03.398Z,1.10
2023-02-25T16:14:52.469Z,4.00
2023-02-25T16:20:00.085Z,1.80
2023-02-25T16:25:59.113Z,2.30
2023-02-25T16:37:43.498Z,5.27
2023-02-25T16:43:01.305Z,3.27
2023-02-25T16:48:38.513Z,4.37
2023-02-25T16:54:37.517Z,2.50
2023-02-25T16:59:58.123Z,4.73
2023-02-25T17:06:14.908Z,3.10
2023-02-25T17:44:01.162Z,3.87
2023-02-25T17:49:19.376Z,4.07
2023-02-25T17:54:45.967Z,3.50
2023-02-25T18:07:04.871Z,1.97
2023-02-25T18:19:30.127Z,2.90
2023-02-25T18:24:50.226Z,3.13
2023-02-25T20:25:54.086Z,6.17
2023-02-25T21:22:39.512Z,4.50
2023-02-25T21:28:08.722Z,4.13
2023-02-25T21:33:58.146Z,3.13
2023-02-25T21:45:22.822Z,6.93
2023-02-25T21:56:55.095Z,4.67
2023-02-25T22:02:21.447Z,3.80
2023-02-25T22:14:24.231Z,4.30
2023-02-25T22:26:42.368Z,6.23
2023-02-25T22:56:36.613Z,5.90
2023-02-25T23:02:08.522Z,5.43
2023-02-25T23:07:37.589Z,5.73
2023-02-25T23:25:56.891Z,5.10
2023-02-25T23:43:24.324Z,7.13
2023-02-25T23:48:27.978Z,5.77
2023-02-25T23:53:52.578Z,6.27
2023-02-25T23:59:06.111Z,5.73
